Time;durP1;ratioP1;P1;durP2;ratioP2;P2;SDS_P1;SDS_P2;PMS_P1;PMS_P2;Temp;Humidity;BMP_temperature;BMP_pressure;BME280_temperature;BME280_humidity;BME280_pressure;Samples;Min_cycle;Max_cycle;Signal;HPM_P1;HPM_P2
2022/07/05 00:02:23;;;;;;;;;;;12.20;99.90;;;;;;4804801;29;19925;-72
2022/07/05 00:04:50;;;;;;;;;;;12.20;99.90;;;;;;4805517;29;20312;-72
2022/07/05 00:07:19;;;;;;;;;;;12.10;99.90;;;;;;4790612;30;20244;-71
2022/07/05 00:09:48;;;;;;;;;;;12.10;99.90;;;;;;4791299;29;19929;-71
2022/07/05 00:12:14;;;;;;;;;;;12.10;99.90;;;;;;4789709;30;19933;-70
2022/07/05 00:14:40;;;;;;;;;;;12.00;99.90;;;;;;4791063;29;19929;-69
2022/07/05 00:17:05;;;;;;;;;;;12.00;99.90;;;;;;4804248;29;19925;-71
2022/07/05 00:19:31;;;;;;;;;;;12.00;99.90;;;;;;4789659;30;20013;-70
2022/07/05 00:21:57;;;;;;;;;;;12.00;99.90;;;;;;4805056;29;19929;-71
2022/07/05 00:24:23;;;;;;;;;;;11.90;99.90;;;;;;4789840;30;19932;-71
2022/07/05 00:26:49;;;;;;;;;;;11.90;99.90;;;;;;4789321;29;20391;-71
2022/07/05 00:29:14;;;;;;;;;;;11.90;99.90;;;;;;4791011;29;19983;-69
2022/07/05 00:31:40;;;;;;;;;;;11.90;99.90;;;;;;4774291;30;19972;-69
2022/07/05 00:34:05;;;;;;;;;;;11.90;99.90;;;;;;4804391;29;20032;-71
2022/07/05 00:36:31;;;;;;;;;;;11.80;99.90;;;;;;4804714;29;19925;-71
2022/07/05 00:38:56;;;;;;;;;;;11.80;99.90;;;;;;4789577;30;20442;-71
2022/07/05 00:41:22;;;;;;;;;;;11.80;99.90;;;;;;4805245;29;19926;-69
2022/07/05 00:43:51;;;;;;;;;;;11.80;99.90;;;;;;4790554;29;20342;-69
2022/07/05 00:46:17;;;;;;;;;;;11.80;99.90;;;;;;4791196;29;19929;-72
2022/07/05 00:48:42;;;;;;;;;;;11.80;99.90;;;;;;4803688;29;20366;-68
2022/07/05 00:51:09;;;;;;;;;;;11.70;99.90;;;;;;4804748;29;19925;-69
2022/07/05 00:53:34;;;;;;;;;;;11.70;99.90;;;;;;4804629;29;20002;-70
2022/07/05 00:56:00;;;;;;;;;;;11.60;99.90;;;;;;4789330;29;20409;-71
2022/07/05 00:58:26;;;;;;;;;;;11.60;99.90;;;;;;4804253;29;20232;-70
2022/07/05 01:00:52;;;;;;;;;;;11.60;99.90;;;;;;4804529;29;19976;-70
2022/07/05 01:03:17;;;;;;;;;;;11.60;99.90;;;;;;4802883;29;19977;-69
2022/07/05 01:05:43;;;;;;;;;;;11.60;99.90;;;;;;4803994;29;19932;-69
2022/07/05 01:08:08;;;;;;;;;;;11.60;99.90;;;;;;4788835;29;20015;-69
2022/07/05 01:10:34;;;;;;;;;;;11.60;99.90;;;;;;4805114;29;20024;-70
2022/07/05 01:13:00;;;;;;;;;;;11.60;99.90;;;;;;4788845;29;20387;-72
2022/07/05 01:15:26;;;;;;;;;;;11.50;99.90;;;;;;4804242;29;19934;-71
2022/07/05 01:17:52;;;;;;;;;;;11.50;99.90;;;;;;4803406;29;19933;-71
2022/07/05 01:20:17;;;;;;;;;;;11.50;99.90;;;;;;4803657;29;20229;-69
2022/07/05 01:22:55;;;;;;;;;;;11.50;99.90;;;;;;4789705;29;20370;-69
2022/07/05 01:25:21;;;;;;;;;;;11.50;99.90;;;;;;4790235;29;19979;-71
2022/07/05 01:27:48;;;;;;;;;;;11.50;99.90;;;;;;4803640;29;19930;-69
2022/07/05 01:30:14;;;;;;;;;;;11.50;99.90;;;;;;4803890;29;20012;-71
2022/07/05 01:32:39;;;;;;;;;;;11.60;99.90;;;;;;4788287;29;20020;-69
2022/07/05 01:35:05;;;;;;;;;;;11.50;99.90;;;;;;4803645;29;20016;-69
2022/07/05 01:37:31;;;;;;;;;;;11.50;99.90;;;;;;4803541;29;19984;-70
2022/07/05 01:39:57;;;;;;;;;;;11.50;99.90;;;;;;4773662;30;19929;-69
2022/07/05 01:42:23;;;;;;;;;;;11.50;99.90;;;;;;4788530;30;19925;-71
2022/07/05 01:44:48;;;;;;;;;;;11.50;99.90;;;;;;4804130;29;20356;-71
2022/07/05 01:47:15;;;;;;;;;;;11.50;99.90;;;;;;4803399;29;20016;-71
2022/07/05 01:49:43;;;;;;;;;;;11.40;99.90;;;;;;4803165;29;19929;-69
2022/07/05 01:52:09;;;;;;;;;;;11.60;99.90;;;;;;4803355;29;19932;-70
2022/07/05 01:54:35;;;;;;;;;;;11.40;99.90;;;;;;4803125;29;19973;-71
2022/07/05 01:57:01;;;;;;;;;;;11.40;99.90;;;;;;4788184;29;20016;-72
2022/07/05 01:59:27;;;;;;;;;;;11.30;99.90;;;;;;4803225;29;20016;-69
2022/07/05 02:01:53;;;;;;;;;;;11.40;99.90;;;;;;4802896;29;19936;-69
2022/07/05 02:04:18;;;;;;;;;;;11.30;99.90;;;;;;4803234;29;20271;-72
2022/07/05 02:06:45;;;;;;;;;;;11.30;99.90;;;;;;4803105;29;19955;-70
2022/07/05 02:09:11;;;;;;;;;;;11.30;99.90;;;;;;4789341;29;20029;-70
2022/07/05 02:11:36;;;;;;;;;;;11.30;99.90;;;;;;4802816;29;20035;-69
2022/07/05 02:14:02;;;;;;;;;;;11.60;99.90;;;;;;4803118;29;20012;-72
2022/07/05 02:16:28;;;;;;;;;;;11.20;99.90;;;;;;4802837;29;19925;-71
2022/07/05 02:18:54;;;;;;;;;;;11.20;99.90;;;;;;4787270;29;20001;-70
2022/07/05 02:21:19;;;;;;;;;;;11.20;99.90;;;;;;4788131;29;20364;-71
2022/07/05 02:23:45;;;;;;;;;;;11.20;99.90;;;;;;4787568;30;19932;-71
2022/07/05 02:26:10;;;;;;;;;;;11.20;99.90;;;;;;4802901;29;19932;-72
2022/07/05 02:28:36;;;;;;;;;;;11.20;99.90;;;;;;4787290;30;20342;-70
2022/07/05 02:31:02;;;;;;;;;;;11.10;99.90;;;;;;4802820;29;19925;-69
2022/07/05 02:33:27;;;;;;;;;;;11.10;99.90;;;;;;4802234;29;19936;-70
2022/07/05 02:35:53;;;;;;;;;;;11.10;99.90;;;;;;4803092;29;20399;-71
2022/07/05 02:38:18;;;;;;;;;;;11.00;99.90;;;;;;4802221;29;19926;-69
2022/07/05 02:40:43;;;;;;;;;;;11.00;99.90;;;;;;4802854;29;19926;-71
2022/07/05 02:43:09;;;;;;;;;;;11.00;99.90;;;;;;4802553;29;19925;-69
2022/07/05 02:45:34;;;;;;;;;;;11.00;99.90;;;;;;4802775;29;20339;-71
2022/07/05 02:48:00;;;;;;;;;;;11.00;99.90;;;;;;4787961;29;19925;-69
2022/07/05 02:50:25;;;;;;;;;;;10.90;99.90;;;;;;4803148;29;20249;-69
2022/07/05 02:52:51;;;;;;;;;;;10.90;99.90;;;;;;4802374;29;19952;-69
2022/07/05 02:55:16;;;;;;;;;;;11.00;99.90;;;;;;4788561;29;19929;-70
2022/07/05 02:57:42;;;;;;;;;;;10.90;99.90;;;;;;4802213;29;19925;-69
2022/07/05 03:00:08;;;;;;;;;;;10.90;99.90;;;;;;4802475;29;19932;-69
2022/07/05 03:02:33;;;;;;;;;;;10.90;99.90;;;;;;4787807;29;19932;-69
2022/07/05 03:04:59;;;;;;;;;;;10.90;99.90;;;;;;4802204;29;19926;-72
2022/07/05 03:07:24;;;;;;;;;;;10.70;99.90;;;;;;4801665;29;19929;-71
2022/07/05 03:09:50;;;;;;;;;;;10.80;99.90;;;;;;4802245;29;19969;-69
2022/07/05 03:12:15;;;;;;;;;;;10.80;99.90;;;;;;4802063;29;19961;-70
2022/07/05 03:14:40;;;;;;;;;;;10.80;99.90;;;;;;4801835;29;19925;-71
2022/07/05 03:17:06;;;;;;;;;;;10.80;99.90;;;;;;4801407;29;19926;-70
2022/07/05 03:19:32;;;;;;;;;;;10.70;99.90;;;;;;4802069;29;20244;-71
2022/07/05 03:21:57;;;;;;;;;;;10.80;99.90;;;;;;4786872;29;19929;-71
2022/07/05 03:24:23;;;;;;;;;;;10.80;99.90;;;;;;4788314;29;20024;-70
2022/07/05 03:26:48;;;;;;;;;;;10.80;99.90;;;;;;4801030;29;20378;-70
2022/07/05 03:29:14;;;;;;;;;;;10.80;99.90;;;;;;4786937;29;19936;-70
2022/07/05 03:31:40;;;;;;;;;;;10.70;99.90;;;;;;4801563;29;19929;-69
2022/07/05 03:34:05;;;;;;;;;;;10.70;99.90;;;;;;4802080;29;20013;-70
2022/07/05 03:36:31;;;;;;;;;;;10.80;99.90;;;;;;4801584;29;19959;-71
2022/07/05 03:38:56;;;;;;;;;;;10.80;99.90;;;;;;4802111;29;19925;-70
2022/07/05 03:41:22;;;;;;;;;;;10.80;99.90;;;;;;4802231;29;19931;-71
2022/07/05 03:43:47;;;;;;;;;;;10.80;99.90;;;;;;4801398;29;20417;-71
2022/07/05 03:46:13;;;;;;;;;;;10.80;99.90;;;;;;4801876;29;19925;-69
2022/07/05 03:48:38;;;;;;;;;;;10.80;99.90;;;;;;4800945;29;19933;-70
2022/07/05 03:51:04;;;;;;;;;;;10.80;99.90;;;;;;4787704;29;19925;-71
2022/07/05 03:53:29;;;;;;;;;;;10.80;99.90;;;;;;4786252;29;19933;-69
2022/07/05 03:55:55;;;;;;;;;;;10.80;99.90;;;;;;4787692;29;20437;-70
2022/07/05 03:58:20;;;;;;;;;;;10.90;99.90;;;;;;4786247;29;19925;-69
2022/07/05 04:00:46;;;;;;;;;;;10.90;99.90;;;;;;4802174;29;20022;-71
2022/07/05 04:03:11;;;;;;;;;;;10.90;99.90;;;;;;4787130;29;19925;-70
2022/07/05 04:05:37;;;;;;;;;;;11.00;99.90;;;;;;4801868;29;20094;-70
2022/07/05 04:08:02;;;;;;;;;;;11.00;99.90;;;;;;4801395;29;19925;-71
2022/07/05 04:10:28;;;;;;;;;;;11.00;99.90;;;;;;4801777;29;19925;-72
2022/07/05 04:12:56;;;;;;;;;;;11.00;99.90;;;;;;4801082;29;20454;-70
2022/07/05 04:15:21;;;;;;;;;;;11.10;99.90;;;;;;4786617;29;19942;-72
2022/07/05 04:17:47;;;;;;;;;;;11.20;99.90;;;;;;4800589;29;19933;-72
2022/07/05 04:20:12;;;;;;;;;;;11.20;99.90;;;;;;4801140;29;20003;-71
2022/07/05 04:22:38;;;;;;;;;;;11.20;99.90;;;;;;4801121;29;19926;-72
2022/07/05 04:25:16;;;;;;;;;;;11.20;99.90;;;;;;4786603;29;19932;-72
2022/07/05 04:27:42;;;;;;;;;;;11.40;99.90;;;;;;4771350;30;19931;-71
2022/07/05 04:30:08;;;;;;;;;;;11.40;99.90;;;;;;4801671;29;20297;-71
2022/07/05 04:32:33;;;;;;;;;;;11.50;99.90;;;;;;4801064;29;19976;-70
2022/07/05 04:34:59;;;;;;;;;;;11.50;99.90;;;;;;4786503;29;20337;-70
2022/07/05 04:37:24;;;;;;;;;;;11.60;99.90;;;;;;4801269;29;19971;-71
2022/07/05 04:39:50;;;;;;;;;;;11.60;99.90;;;;;;4804392;29;20279;-72
2022/07/05 04:42:15;;;;;;;;;;;11.60;99.90;;;;;;4804419;29;20349;-70
2022/07/05 04:44:41;;;;;;;;;;;11.70;99.90;;;;;;4805097;29;19925;-71
2022/07/05 04:47:06;;;;;;;;;;;11.80;99.90;;;;;;4803548;29;20403;-70
2022/07/05 04:49:32;;;;;;;;;;;11.80;99.90;;;;;;4805607;29;20062;-72
2022/07/05 04:51:57;;;;;;;;;;;11.90;99.90;;;;;;4790780;29;19932;-73
2022/07/05 04:54:23;;;;;;;;;;;11.90;99.90;;;;;;4790514;29;19957;-69
2022/07/05 04:56:48;;;;;;;;;;;12.00;99.90;;;;;;4803987;29;19933;-70
2022/07/05 04:59:14;;;;;;;;;;;12.10;99.90;;;;;;4804220;29;19925;-69
2022/07/05 05:01:39;;;;;;;;;;;12.20;99.90;;;;;;4803671;29;19932;-69
2022/07/05 05:04:05;;;;;;;;;;;12.30;99.90;;;;;;4789328;29;20335;-70
2022/07/05 05:06:30;;;;;;;;;;;12.30;99.90;;;;;;4773804;29;19968;-71
2022/07/05 05:08:56;;;;;;;;;;;12.40;99.90;;;;;;4788917;29;19991;-70
2022/07/05 05:11:21;;;;;;;;;;;12.60;99.90;;;;;;4789240;30;19925;-71
2022/07/05 05:13:47;;;;;;;;;;;12.60;99.90;;;;;;4790016;29;19960;-69
2022/07/05 05:16:12;;;;;;;;;;;12.70;99.90;;;;;;4773852;30;19933;-72
2022/07/05 05:18:38;;;;;;;;;;;12.80;99.90;;;;;;4789446;29;19921;-71
2022/07/05 05:21:04;;;;;;;;;;;12.90;99.90;;;;;;4791628;29;19994;-71
2022/07/05 05:23:29;;;;;;;;;;;13.10;99.90;;;;;;4791447;29;19921;-72
2022/07/05 05:25:54;;;;;;;;;;;13.20;99.90;;;;;;4792300;29;19935;-72
2022/07/05 05:28:20;;;;;;;;;;;13.30;99.90;;;;;;4791575;29;20337;-72
2022/07/05 05:30:46;;;;;;;;;;;13.50;99.90;;;;;;4776769;29;20350;-71
2022/07/05 05:33:12;;;;;;;;;;;13.60;99.90;;;;;;4776210;29;19929;-73
2022/07/05 05:35:38;;;;;;;;;;;14.10;99.90;;;;;;4791549;29;19931;-69
2022/07/05 05:38:03;;;;;;;;;;;15.50;99.90;;;;;;4807426;29;19929;-72
2022/07/05 05:40:29;;;;;;;;;;;16.80;99.90;;;;;;4791590;29;19925;-72
2022/07/05 05:42:55;;;;;;;;;;;17.90;99.90;;;;;;4791261;29;19925;-72
2022/07/05 05:45:21;;;;;;;;;;;18.90;99.90;;;;;;4807854;29;19990;-72
2022/07/05 05:47:50;;;;;;;;;;;19.80;99.90;;;;;;4791019;29;19924;-72
2022/07/05 05:50:22;;;;;;;;;;;20.20;99.90;;;;;;4807431;29;20019;-71
2022/07/05 05:52:48;;;;;;;;;;;20.80;99.90;;;;;;4776000;29;19932;-70
2022/07/05 05:55:13;;;;;;;;;;;21.40;99.90;;;;;;4791585;29;19925;-73
2022/07/05 05:57:39;;;;;;;;;;;21.90;99.90;;;;;;4791449;29;19929;-70
2022/07/05 06:00:05;;;;;;;;;;;22.30;99.90;;;;;;4807289;29;20422;-72
2022/07/05 06:02:31;;;;;;;;;;;22.60;99.90;;;;;;4775446;29;19925;-71
2022/07/05 06:04:56;;;;;;;;;;;22.80;99.90;;;;;;4776281;29;19947;-72
2022/07/05 06:07:22;;;;;;;;;;;22.90;99.90;;;;;;4790950;29;19925;-72
2022/07/05 06:09:47;;;;;;;;;;;23.00;99.90;;;;;;4791378;29;19976;-73
2022/07/05 06:12:13;;;;;;;;;;;23.00;99.90;;;;;;4790628;29;20019;-70
2022/07/05 06:14:38;;;;;;;;;;;23.10;99.90;;;;;;4791089;29;19935;-73
2022/07/05 06:17:04;;;;;;;;;;;23.20;99.90;;;;;;4806580;29;19967;-73
2022/07/05 06:19:30;;;;;;;;;;;23.20;99.90;;;;;;4790994;29;20347;-72
2022/07/05 06:21:55;;;;;;;;;;;23.20;99.90;;;;;;4790878;29;19925;-71
2022/07/05 06:24:21;;;;;;;;;;;22.50;99.90;;;;;;4790678;29;19932;-71
2022/07/05 06:26:46;;;;;;;;;;;21.60;99.90;;;;;;4775717;29;20060;-70
2022/07/05 06:29:11;;;;;;;;;;;21.50;99.90;;;;;;4791163;29;19925;-72
2022/07/05 06:31:37;;;;;;;;;;;21.50;99.90;;;;;;4790016;29;19929;-70
2022/07/05 06:34:03;;;;;;;;;;;21.90;99.90;;;;;;4807121;29;20271;-73
2022/07/05 06:36:29;;;;;;;;;;;22.20;99.90;;;;;;4790457;29;20377;-74
2022/07/05 06:38:54;;;;;;;;;;;22.30;99.90;;;;;;4790789;29;19925;-71
2022/07/05 06:41:19;;;;;;;;;;;22.30;99.90;;;;;;4806612;29;19947;-71
2022/07/05 06:43:45;;;;;;;;;;;22.00;99.90;;;;;;4775588;29;19981;-73
2022/07/05 06:46:10;;;;;;;;;;;21.50;99.90;;;;;;4806866;29;19987;-72
2022/07/05 06:48:36;;;;;;;;;;;20.90;99.90;;;;;;4806222;29;19925;-71
2022/07/05 06:51:01;;;;;;;;;;;20.70;99.90;;;;;;4790640;29;20434;-71
2022/07/05 06:53:27;;;;;;;;;;;20.50;99.90;;;;;;4790340;29;19933;-71
2022/07/05 06:55:52;;;;;;;;;;;20.20;99.90;;;;;;4790238;29;19928;-73
2022/07/05 06:58:18;;;;;;;;;;;20.00;99.90;;;;;;4790598;29;19925;-71
2022/07/05 07:00:44;;;;;;;;;;;19.80;99.90;;;;;;4789561;29;20351;-71
2022/07/05 07:03:09;;;;;;;;;;;19.60;99.90;;;;;;4789736;29;19956;-73
2022/07/05 07:05:35;;;;;;;;;;;19.50;99.90;;;;;;4790269;29;20315;-70
2022/07/05 07:10:45;;;;;;;;;;;19.60;99.90;;;;;;4789778;29;19932;-71
2022/07/05 07:13:11;;;;;;;;;;;19.60;99.90;;;;;;4790153;29;19924;-74
2022/07/05 07:15:37;;;;;;;;;;;19.80;99.90;;;;;;4790402;29;19932;-71
2022/07/05 07:18:03;;;;;;;;;;;19.80;99.90;;;;;;4805653;29;20380;-71
2022/07/05 07:20:29;;;;;;;;;;;19.50;99.90;;;;;;4805974;29;19925;-72
2022/07/05 07:22:54;;;;;;;;;;;19.40;99.90;;;;;;4790075;29;20457;-72
2022/07/05 07:25:20;;;;;;;;;;;19.30;99.90;;;;;;4790307;29;20409;-72
2022/07/05 07:27:49;;;;;;;;;;;19.20;99.90;;;;;;4789941;29;20367;-71
2022/07/05 07:30:16;;;;;;;;;;;19.40;99.90;;;;;;4790321;29;20271;-71
2022/07/05 07:32:42;;;;;;;;;;;19.50;99.90;;;;;;4789068;29;19932;-72
2022/07/05 07:35:08;;;;;;;;;;;19.60;99.90;;;;;;4789897;29;19929;-71
2022/07/05 07:37:33;;;;;;;;;;;19.80;99.90;;;;;;4805829;29;20416;-72
2022/07/05 07:40:00;;;;;;;;;;;19.80;99.90;;;;;;4789961;29;19972;-73
2022/07/05 07:42:27;;;;;;;;;;;19.70;99.90;;;;;;4775272;29;19932;-71
2022/07/05 07:44:52;;;;;;;;;;;19.90;99.90;;;;;;4775077;29;19925;-72
2022/07/05 07:47:18;;;;;;;;;;;19.90;99.90;;;;;;4789529;29;19932;-74
2022/07/05 07:49:43;;;;;;;;;;;19.80;99.90;;;;;;4789467;29;19929;-74
2022/07/05 07:52:09;;;;;;;;;;;19.80;99.90;;;;;;4805958;29;19976;-71
2022/07/05 07:54:35;;;;;;;;;;;19.80;99.90;;;;;;4775009;29;20301;-72
2022/07/05 07:57:01;;;;;;;;;;;19.60;99.90;;;;;;4790025;29;19933;-71
2022/07/05 07:59:27;;;;;;;;;;;19.50;99.90;;;;;;4789927;29;19969;-70
2022/07/05 08:01:52;;;;;;;;;;;19.70;99.90;;;;;;4805153;29;19936;-73
2022/07/05 08:04:18;;;;;;;;;;;19.70;99.90;;;;;;4789525;29;19925;-71
2022/07/05 08:06:43;;;;;;;;;;;19.80;99.90;;;;;;4774305;29;19932;-71
2022/07/05 08:09:09;;;;;;;;;;;20.00;99.90;;;;;;4789689;29;19925;-73
2022/07/05 08:11:34;;;;;;;;;;;20.40;99.90;;;;;;4789825;29;19932;-73
2022/07/05 08:14:00;;;;;;;;;;;20.50;99.90;;;;;;4792788;29;20367;-73
2022/07/05 08:16:25;;;;;;;;;;;20.50;99.90;;;;;;4793366;29;20028;-74
2022/07/05 08:21:37;;;;;;;;;;;20.20;99.90;;;;;;4809206;29;20008;-72
2022/07/05 08:24:06;;;;;;;;;;;19.80;99.90;;;;;;4793060;29;20016;-72
2022/07/05 08:26:32;;;;;;;;;;;19.60;99.90;;;;;;4808698;29;19932;-74
2022/07/05 08:28:58;;;;;;;;;;;19.40;99.90;;;;;;4792860;29;19929;-72
2022/07/05 08:31:24;;;;;;;;;;;19.60;99.90;;;;;;4792976;29;19948;-74
2022/07/05 08:33:49;;;;;;;;;;;19.70;99.90;;;;;;4808491;29;20379;-73
2022/07/05 08:36:15;;;;;;;;;;;19.60;99.90;;;;;;4792415;29;20316;-71
2022/07/05 08:38:40;;;;;;;;;;;19.50;99.90;;;;;;4808883;29;19925;-71
2022/07/05 08:41:07;;;;;;;;;;;19.50;99.90;;;;;;4792589;29;19932;-73
2022/07/05 08:43:33;;;;;;;;;;;19.50;99.90;;;;;;4792455;29;20363;-73
2022/07/05 08:45:59;;;;;;;;;;;19.50;99.90;;;;;;4792439;29;19982;-72
2022/07/05 08:48:26;;;;;;;;;;;19.60;99.90;;;;;;4792014;29;19932;-73
2022/07/05 08:50:52;;;;;;;;;;;19.50;99.90;;;;;;4808312;29;20440;-74
2022/07/05 08:53:18;;;;;;;;;;;19.80;99.90;;;;;;4792762;29;19933;-72
2022/07/05 08:55:44;;;;;;;;;;;20.10;99.90;;;;;;4791900;29;19931;-74
2022/07/05 08:58:10;;;;;;;;;;;20.20;99.90;;;;;;4792659;29;19924;-73
2022/07/05 09:00:36;;;;;;;;;;;20.50;99.90;;;;;;4792594;29;20424;-74
2022/07/05 09:03:01;;;;;;;;;;;20.50;99.90;;;;;;4791498;29;20095;-73
2022/07/05 09:05:28;;;;;;;;;;;20.30;99.90;;;;;;4792537;29;20398;-72
2022/07/05 09:08:01;;;;;;;;;;;20.10;99.90;;;;;;4792066;29;19932;-73
2022/07/05 09:10:27;;;;;;;;;;;19.80;99.90;;;;;;4808230;29;19926;-73
2022/07/05 09:12:53;;;;;;;;;;;19.70;99.90;;;;;;4791854;29;19932;-72
2022/07/05 09:15:19;;;;;;;;;;;19.70;99.90;;;;;;4791810;29;19941;-75
2022/07/05 09:17:45;;;;;;;;;;;19.90;99.90;;;;;;4791290;29;19944;-72
2022/07/05 09:20:12;;;;;;;;;;;20.20;99.90;;;;;;4791452;29;19961;-74
2022/07/05 09:22:56;;;;;;;;;;;20.20;99.90;;;;;;4791564;29;19929;-74
2022/07/05 09:25:29;;;;;;;;;;;20.20;99.90;;;;;;4791231;29;19986;-71
2022/07/05 09:28:02;;;;;;;;;;;20.10;99.90;;;;;;4808226;29;19925;-74
2022/07/05 09:30:28;;;;;;;;;;;20.10;99.90;;;;;;4791407;29;19929;-75
2022/07/05 09:33:03;;;;;;;;;;;20.40;99.90;;;;;;4791260;29;20386;-71
2022/07/05 09:35:29;;;;;;;;;;;20.70;99.90;;;;;;4791562;29;19925;-74
2022/07/05 09:37:55;;;;;;;;;;;20.60;97.10;;;;;;4792121;29;20011;-72
2022/07/05 09:40:20;;;;;;;;;;;20.60;99.90;;;;;;4791773;29;20077;-72
2022/07/05 09:42:46;;;;;;;;;;;20.40;97.70;;;;;;4792019;29;19925;-72
2022/07/05 09:45:11;;;;;;;;;;;20.30;99.90;;;;;;4791913;29;19925;-72
2022/07/05 09:47:37;;;;;;;;;;;20.30;99.90;;;;;;4791181;29;19929;-70
2022/07/05 09:50:06;;;;;;;;;;;20.30;99.90;;;;;;4791430;29;19984;-70
2022/07/05 09:52:33;;;;;;;;;;;20.10;99.90;;;;;;4791370;29;19925;-71
2022/07/05 09:55:19;;;;;;;;;;;20.00;99.90;;;;;;4791335;29;19968;-71
2022/07/05 09:57:46;;;;;;;;;;;20.00;99.90;;;;;;4790903;29;19928;-70
2022/07/05 10:00:12;;;;;;;;;;;19.90;99.90;;;;;;4807688;29;19925;-70
2022/07/05 10:02:48;;;;;;;;;;;19.90;99.90;;;;;;4791384;29;20324;-71
2022/07/05 10:05:15;;;;;;;;;;;19.90;99.90;;;;;;4791285;29;19964;-72
2022/07/05 10:07:48;;;;;;;;;;;19.90;99.90;;;;;;4790704;29;19929;-71
2022/07/05 10:10:15;;;;;;;;;;;19.90;99.90;;;;;;4791126;29;19932;-73
2022/07/05 10:12:44;;;;;;;;;;;20.00;99.90;;;;;;4791170;29;19932;-71
2022/07/05 10:15:10;;;;;;;;;;;20.00;99.90;;;;;;4791129;29;20402;-71
2022/07/05 10:17:39;;;;;;;;;;;20.10;99.90;;;;;;4790610;29;19932;-73
2022/07/05 10:20:08;;;;;;;;;;;20.10;99.90;;;;;;4807221;29;20016;-72
2022/07/05 10:22:34;;;;;;;;;;;20.20;99.90;;;;;;4790516;29;19932;-73
2022/07/05 10:25:00;;;;;;;;;;;20.20;99.90;;;;;;4807748;29;20027;-73
2022/07/05 10:27:27;;;;;;;;;;;20.20;99.90;;;;;;4790755;29;20411;-71
2022/07/05 10:29:53;;;;;;;;;;;20.20;99.90;;;;;;4791236;29;19981;-72
2022/07/05 10:32:19;;;;;;;;;;;20.20;99.90;;;;;;4790329;29;20365;-73
2022/07/05 10:34:46;;;;;;;;;;;20.10;99.90;;;;;;4806875;29;19943;-72
2022/07/05 10:37:12;;;;;;;;;;;20.10;99.90;;;;;;4789739;29;20367;-71
2022/07/05 10:39:37;;;;;;;;;;;20.10;99.90;;;;;;4790734;29;19940;-71
2022/07/05 10:42:05;;;;;;;;;;;19.90;99.90;;;;;;4807098;29;19955;-72
2022/07/05 10:44:31;;;;;;;;;;;19.70;99.90;;;;;;4790652;29;19925;-71
2022/07/05 10:47:07;;;;;;;;;;;19.50;99.90;;;;;;4790452;29;19925;-72
2022/07/05 10:49:33;;;;;;;;;;;19.40;99.90;;;;;;4806661;29;19925;-72
2022/07/05 10:51:59;;;;;;;;;;;19.30;99.90;;;;;;4790878;29;20389;-72
2022/07/05 10:54:24;;;;;;;;;;;19.30;99.90;;;;;;4790140;29;19924;-71
2022/07/05 10:57:13;;;;;;;;;;;19.30;99.90;;;;;;4806220;29;19925;-73
2022/07/05 11:00:02;;;;;;;;;;;19.30;99.90;;;;;;4785276;29;20019;-70
2022/07/05 11:02:27;;;;;;;;;;;19.40;99.90;;;;;;4784624;29;20016;-70
2022/07/05 11:04:56;;;;;;;;;;;19.40;99.90;;;;;;4790232;29;19964;-71
2022/07/05 11:07:40;;;;;;;;;;;19.50;99.90;;;;;;4806358;29;19999;-73
2022/07/05 11:10:07;;;;;;;;;;;19.50;99.90;;;;;;4790040;29;20235;-71
2022/07/05 11:12:36;;;;;;;;;;;19.50;99.90;;;;;;4790081;29;19925;-72
2022/07/05 11:15:06;;;;;;;;;;;19.70;99.90;;;;;;4775240;29;19987;-74
2022/07/05 11:17:34;;;;;;;;;;;19.90;99.90;;;;;;4789655;29;19925;-71
2022/07/05 11:20:00;;;;;;;;;;;20.00;99.90;;;;;;4789730;29;20379;-71
2022/07/05 11:22:25;;;;;;;;;;;20.20;99.90;;;;;;4775406;29;19932;-71
2022/07/05 11:24:51;;;;;;;;;;;20.40;99.90;;;;;;4790026;29;20355;-71
2022/07/05 11:27:17;;;;;;;;;;;20.50;99.90;;;;;;4789765;29;19924;-71
2022/07/05 11:29:50;;;;;;;;;;;20.50;99.90;;;;;;4789910;29;19932;-73
2022/07/05 11:32:23;;;;;;;;;;;20.40;99.90;;;;;;4806012;29;19929;-73
2022/07/05 11:34:52;;;;;;;;;;;20.40;99.90;;;;;;4789735;29;20012;-74
2022/07/05 11:37:18;;;;;;;;;;;20.70;99.90;;;;;;4806174;29;20031;-72
2022/07/05 11:39:45;;;;;;;;;;;20.80;99.90;;;;;;4789402;29;20002;-72
2022/07/05 11:42:11;;;;;;;;;;;20.80;99.90;;;;;;4805851;29;19925;-71
2022/07/05 11:44:37;;;;;;;;;;;20.70;99.90;;;;;;4789502;29;19932;-71
2022/07/05 11:47:03;;;;;;;;;;;20.60;99.90;;;;;;4806045;29;19925;-71
2022/07/05 11:49:29;;;;;;;;;;;20.50;99.90;;;;;;4809375;29;19936;-73
2022/07/05 11:51:55;;;;;;;;;;;20.50;99.90;;;;;;4793586;29;19982;-72
2022/07/05 11:54:24;;;;;;;;;;;20.50;99.90;;;;;;4792992;29;19929;-72
2022/07/05 11:56:50;;;;;;;;;;;20.60;99.90;;;;;;4793323;29;19935;-75
2022/07/05 11:59:16;;;;;;;;;;;20.80;99.90;;;;;;4793427;29;20004;-74
2022/07/05 12:01:45;;;;;;;;;;;21.00;99.90;;;;;;4792467;29;20403;-73
2022/07/05 12:04:10;;;;;;;;;;;21.30;99.90;;;;;;4793790;29;20394;-73
2022/07/05 12:06:42;;;;;;;;;;;21.30;81.80;;;;;;4793031;29;19925;-74
2022/07/05 12:09:08;;;;;;;;;;;21.20;96.70;;;;;;4809465;29;19933;-72
2022/07/05 12:14:22;;;;;;;;;;;21.20;81.70;;;;;;4792948;29;20346;-72
2022/07/05 12:16:47;;;;;;;;;;;21.20;95.00;;;;;;4792555;29;19933;-73
2022/07/05 12:19:23;;;;;;;;;;;21.40;91.40;;;;;;4809078;29;19925;-72
2022/07/05 12:21:52;;;;;;;;;;;21.50;98.40;;;;;;4792785;29;19929;-72
2022/07/05 12:24:18;;;;;;;;;;;21.50;70.50;;;;;;4793149;29;19951;-73
2022/07/05 12:26:44;;;;;;;;;;;21.50;65.40;;;;;;4792872;29;19929;-74
2022/07/05 12:29:09;;;;;;;;;;;21.60;79.60;;;;;;4809109;29;20300;-72
2022/07/05 12:31:35;;;;;;;;;;;21.70;73.60;;;;;;4792652;29;19925;-72
2022/07/05 12:34:16;;;;;;;;;;;21.80;81.90;;;;;;4793121;29;19933;-72
2022/07/05 12:36:44;;;;;;;;;;;21.80;62.30;;;;;;4792685;29;19925;-72
2022/07/05 12:39:10;;;;;;;;;;;21.80;66.30;;;;;;4792768;29;19925;-71
2022/07/05 12:41:41;;;;;;;;;;;21.90;66.30;;;;;;4808974;29;20386;-73
2022/07/05 12:44:07;;;;;;;;;;;22.00;62.20;;;;;;4778278;29;19991;-72
2022/07/05 12:46:37;;;;;;;;;;;22.10;65.20;;;;;;4777287;29;20409;-71
2022/07/05 12:49:03;;;;;;;;;;;22.40;63.70;;;;;;4792584;29;19961;-73
2022/07/05 12:51:33;;;;;;;;;;;22.60;60.80;;;;;;4791805;29;19971;-74
2022/07/05 12:59:30;;;;;;;;;;;22.60;61.80;;;;;;4807626;29;19925;-71
2022/07/05 13:01:56;;;;;;;;;;;22.40;71.30;;;;;;4791828;29;19925;-73
2022/07/05 13:04:21;;;;;;;;;;;22.30;73.60;;;;;;4792414;29;19960;-71
2022/07/05 13:06:55;;;;;;;;;;;22.00;74.10;;;;;;4792209;29;19935;-73
2022/07/05 13:09:32;;;;;;;;;;;21.80;75.30;;;;;;4792408;29;20267;-72
2022/07/05 13:12:07;;;;;;;;;;;22.00;82.30;;;;;;4808286;29;20024;-72
2022/07/05 13:14:33;;;;;;;;;;;21.90;79.90;;;;;;4792187;29;19969;-73
2022/07/05 13:16:58;;;;;;;;;;;21.90;90.10;;;;;;4791795;29;19968;-72
2022/07/05 13:19:24;;;;;;;;;;;21.90;81.50;;;;;;4788703;29;19926;-74
2022/07/05 13:21:49;;;;;;;;;;;21.50;85.70;;;;;;4790115;29;19931;-74
2022/07/05 13:24:15;;;;;;;;;;;21.50;86.60;;;;;;4789879;30;20294;-73
2022/07/05 13:26:40;;;;;;;;;;;21.60;90.40;;;;;;4789951;30;20012;-71
2022/07/05 13:29:06;;;;;;;;;;;21.50;72.30;;;;;;4788462;29;19928;-72
2022/07/05 13:31:32;;;;;;;;;;;21.50;78.70;;;;;;4788244;29;19925;-72
2022/07/05 13:33:58;;;;;;;;;;;21.60;81.40;;;;;;4788712;29;19936;-72
2022/07/05 13:36:24;;;;;;;;;;;21.70;84.40;;;;;;4788448;29;19929;-71
2022/07/05 13:38:50;;;;;;;;;;;21.70;74.10;;;;;;4773220;30;19925;-71
2022/07/05 13:41:16;;;;;;;;;;;21.80;81.00;;;;;;4773426;30;19925;-72
2022/07/05 13:43:41;;;;;;;;;;;22.00;79.80;;;;;;4773481;30;20011;-73
2022/07/05 13:46:07;;;;;;;;;;;22.20;74.70;;;;;;4788587;29;20016;-72
2022/07/05 13:48:33;;;;;;;;;;;22.20;64.60;;;;;;4787987;29;19925;-72
2022/07/05 13:51:01;;;;;;;;;;;22.30;64.80;;;;;;4788565;29;19957;-71
2022/07/05 13:53:27;;;;;;;;;;;22.10;70.90;;;;;;4778037;30;19921;-72
2022/07/05 13:55:52;;;;;;;;;;;22.20;91.10;;;;;;4788082;30;20371;-72
2022/07/05 13:58:18;;;;;;;;;;;22.00;68.00;;;;;;4787982;29;19925;-73
2022/07/05 14:00:43;;;;;;;;;;;22.10;60.40;;;;;;4788241;29;19975;-73
2022/07/05 14:03:09;;;;;;;;;;;21.90;59.00;;;;;;4788863;30;19926;-72
2022/07/05 14:05:34;;;;;;;;;;;21.80;61.90;;;;;;4788595;29;19976;-72
2022/07/05 14:07:59;;;;;;;;;;;21.90;70.40;;;;;;4773192;30;19926;-71
2022/07/05 14:10:25;;;;;;;;;;;21.90;61.80;;;;;;4789175;29;19925;-71
2022/07/05 14:12:50;;;;;;;;;;;22.00;62.80;;;;;;4787629;29;20535;-72
2022/07/05 14:15:16;;;;;;;;;;;22.00;64.10;;;;;;4788218;29;19936;-73
2022/07/05 14:17:41;;;;;;;;;;;22.00;65.30;;;;;;4787438;29;20398;-74
2022/07/05 14:20:09;;;;;;;;;;;22.00;62.90;;;;;;4787568;29;19951;-73
2022/07/05 14:22:35;;;;;;;;;;;22.00;66.00;;;;;;4773136;30;19932;-74
2022/07/05 14:25:29;;;;;;;;;;;22.10;67.80;;;;;;4788077;29;19926;-71
2022/07/05 14:27:55;;;;;;;;;;;22.00;63.40;;;;;;4787781;30;19925;-74